createdAt,value
2022-09-15T00:01:06.051Z,4.30
2022-09-15T00:03:33.179Z,4.68
2022-09-15T00:06:00.287Z,3.38
2022-09-15T00:08:27.500Z,2.83
2022-09-15T00:11:03.154Z,4.40
2022-09-15T00:13:30.205Z,7.18
2022-09-15T00:15:57.288Z,5.10
2022-09-15T00:18:25.505Z,5.95
2022-09-15T00:20:52.574Z,5.95
2022-09-15T00:23:19.715Z,5.38
2022-09-15T00:25:52.133Z,6.63
2022-09-15T00:28:22.627Z,6.80
2022-09-15T00:30:54.644Z,6.00
2022-09-15T00:33:22.842Z,6.00
2022-09-15T00:35:51.723Z,6.95
2022-09-15T00:38:20.255Z,9.35
2022-09-15T00:40:52.812Z,9.60
2022-09-15T00:43:41.462Z,8.27
2022-09-15T00:46:09.832Z,8.10
2022-09-15T00:48:40.399Z,14.20
2022-09-15T00:51:10.057Z,11.15
2022-09-15T00:53:37.762Z,73.88
2022-09-15T00:56:07.119Z,58.17
2022-09-15T01:01:08.552Z,19.15
2022-09-15T01:03:36.799Z,14.50
2022-09-15T01:06:24.228Z,54.53
2022-09-15T01:08:53.897Z,14.93
2022-09-15T01:11:21.179Z,48.67
2022-09-15T01:13:48.262Z,56.80
2022-09-15T01:16:49.668Z,54.95
2022-09-15T01:19:38.506Z,155.27
2022-09-15T01:22:24.076Z,83.95
2022-09-15T01:25:09.980Z,123.75
2022-09-15T01:27:52.139Z,87.25
2022-09-15T01:30:19.961Z,104.93
2022-09-15T01:33:06.201Z,155.45
2022-09-15T01:35:55.993Z,225.18
2022-09-15T01:38:35.101Z,112.78
2022-09-15T01:41:08.704Z,57.05
2022-09-15T01:43:59.643Z,169.88
2022-09-15T01:46:31.506Z,399.27
2022-09-15T01:49:02.177Z,69.43
2022-09-15T01:51:31.671Z,91.63
2022-09-15T01:54:02.346Z,145.15
2022-09-15T01:56:29.469Z,22.92
2022-09-15T01:58:57.165Z,66.43
2022-09-15T02:01:47.848Z,22.35
2022-09-15T02:04:21.698Z,115.13
2022-09-15T02:07:11.592Z,108.47
2022-09-15T02:09:48.859Z,51.55
2022-09-15T02:12:43.249Z,39.70
2022-09-15T02:15:14.896Z,69.88
2022-09-15T02:17:46.051Z,19.85
2022-09-15T02:20:35.984Z,42.90
2022-09-15T02:23:09.499Z,28.77
2022-09-15T02:25:56.819Z,10.57
2022-09-15T02:28:31.104Z,10.63
2022-09-15T02:31:00.608Z,10.77
2022-09-15T02:33:32.932Z,10.38
2022-09-15T02:36:00.194Z,9.73
2022-09-15T02:38:34.010Z,10.35
2022-09-15T02:41:01.296Z,9.43
2022-09-15T02:43:29.570Z,0.68
2022-09-15T02:45:56.717Z,0.40
2022-09-15T02:48:25.189Z,1.17
2022-09-15T02:50:52.244Z,0.40
2022-09-15T02:53:19.273Z,0.88
2022-09-15T02:55:47.128Z,0.50
2022-09-15T02:58:14.167Z,0.80
2022-09-15T03:00:42.504Z,2.72
2022-09-15T03:03:09.613Z,0.68
2022-09-15T03:05:36.717Z,0.40
2022-09-15T03:08:03.866Z,0.65
2022-09-15T03:10:32.672Z,0.82
2022-09-15T03:12:59.702Z,3.20
2022-09-15T03:15:27.255Z,0.38
2022-09-15T03:17:54.985Z,0.40
2022-09-15T03:20:30.284Z,1.60
2022-09-15T03:22:57.401Z,5.85
2022-09-15T03:25:26.761Z,11.50
2022-09-15T03:30:20.768Z,4.45
2022-09-15T03:32:48.664Z,2.35
2022-09-15T03:35:15.825Z,2.70
2022-09-15T03:37:42.931Z,3.90
2022-09-15T03:40:10.736Z,5.40
2022-09-15T03:42:38.043Z,11.85
2022-09-15T03:45:05.493Z,8.00
2022-09-15T03:47:32.689Z,8.27
2022-09-15T03:49:59.950Z,7.65
2022-09-15T03:52:31.334Z,5.55
2022-09-15T03:54:58.953Z,14.73
2022-09-15T03:57:26.201Z,10.90
2022-09-15T03:59:53.312Z,12.77
2022-09-15T04:02:20.870Z,20.35
2022-09-15T04:04:49.436Z,15.75
2022-09-15T04:07:16.611Z,16.92
2022-09-15T04:09:43.701Z,14.77
2022-09-15T04:12:10.896Z,14.65
2022-09-15T04:14:37.985Z,15.73
2022-09-15T04:17:05.042Z,13.50
2022-09-15T04:19:32.115Z,17.38
2022-09-15T04:21:59.191Z,26.67
2022-09-15T04:24:26.393Z,15.68
2022-09-15T04:26:53.510Z,12.88
2022-09-15T04:29:20.615Z,14.95
2022-09-15T04:31:48.522Z,25.80
2022-09-15T04:34:15.657Z,22.08
2022-09-15T04:36:42.743Z,25.40
2022-09-15T04:39:09.889Z,25.45
2022-09-15T04:41:36.993Z,19.83
2022-09-15T04:44:04.259Z,24.73
2022-09-15T04:46:31.396Z,21.02
2022-09-15T04:48:58.641Z,21.98
2022-09-15T04:51:27.127Z,21.50
2022-09-15T04:53:54.216Z,29.17
2022-09-15T04:56:23.745Z,19.42
2022-09-15T04:58:53.884Z,13.73
2022-09-15T05:01:23.941Z,17.05
2022-09-15T05:03:51.486Z,17.38
2022-09-15T05:06:23.669Z,14.30
2022-09-15T05:08:52.727Z,17.73
2022-09-15T05:11:20.064Z,18.65
2022-09-15T05:13:47.516Z,19.80
2022-09-15T05:16:16.970Z,27.20
2022-09-15T05:21:13.345Z,23.27
2022-09-15T05:23:40.734Z,25.38
2022-09-15T05:26:10.982Z,22.00
2022-09-15T05:28:38.749Z,18.52
2022-09-15T05:31:23.723Z,17.55
2022-09-15T05:33:52.581Z,21.52
2022-09-15T05:36:23.641Z,25.92
2022-09-15T05:38:52.788Z,24.58
2022-09-15T05:41:20.773Z,21.73
2022-09-15T05:43:49.630Z,24.50
2022-09-15T05:46:18.520Z,16.52
2022-09-15T05:48:46.286Z,17.45
2022-09-15T05:51:14.432Z,26.85
2022-09-15T05:53:41.659Z,21.55
2022-09-15T05:56:12.104Z,16.85
2022-09-15T05:58:41.353Z,19.77
2022-09-15T06:01:13.241Z,25.08
2022-09-15T06:03:40.753Z,21.15
2022-09-15T06:06:07.970Z,27.73
2022-09-15T06:08:44.075Z,23.92
2022-09-15T06:11:15.494Z,21.20
2022-09-15T06:13:43.337Z,19.75
2022-09-15T06:16:12.524Z,24.50
2022-09-15T06:18:41.097Z,24.35
2022-09-15T06:21:13.269Z,18.67
2022-09-15T06:23:40.738Z,22.05
2022-09-15T06:26:16.652Z,17.80
2022-09-15T06:28:49.876Z,21.08
2022-09-15T06:31:17.602Z,18.73
2022-09-15T06:33:47.389Z,21.23
2022-09-15T06:36:15.801Z,15.40
2022-09-15T06:38:45.072Z,17.23
2022-09-15T06:41:12.243Z,16.52
2022-09-15T06:43:39.919Z,14.85
2022-09-15T06:46:19.270Z,15.52
2022-09-15T06:51:17.478Z,21.10
2022-09-15T06:53:44.876Z,16.70
2022-09-15T06:56:17.632Z,15.52
2022-09-15T06:58:45.835Z,14.45
2022-09-15T07:01:18.531Z,13.85
2022-09-15T07:03:45.728Z,16.10
2022-09-15T07:06:13.062Z,19.42
2022-09-15T07:08:41.123Z,14.60
2022-09-15T07:11:10.015Z,13.98
2022-09-15T07:13:38.002Z,16.20
2022-09-15T07:16:07.428Z,15.48
2022-09-15T07:21:09.356Z,19.15
2022-09-15T07:23:36.589Z,25.58
2022-09-15T07:26:09.637Z,16.92
2022-09-15T07:28:37.972Z,15.90
2022-09-15T07:31:06.707Z,20.08
2022-09-15T07:33:35.148Z,30.42
2022-09-15T07:36:03.428Z,19.65
2022-09-15T07:38:30.769Z,20.40
2022-09-15T07:41:12.047Z,21.10
2022-09-15T07:43:39.961Z,19.77
2022-09-15T07:46:07.350Z,21.52
2022-09-15T07:48:34.596Z,24.48
2022-09-15T07:51:01.641Z,23.08
2022-09-15T07:53:30.011Z,56.58
2022-09-15T07:55:57.253Z,25.38
2022-09-15T07:58:24.987Z,26.20
2022-09-15T08:00:52.292Z,27.35
2022-09-15T08:03:19.518Z,22.85
2022-09-15T08:05:46.566Z,24.40
2022-09-15T08:08:13.677Z,23.92
2022-09-15T08:10:41.697Z,30.70
2022-09-15T08:13:08.924Z,25.00
2022-09-15T08:15:37.500Z,21.08
2022-09-15T08:18:05.849Z,24.20
2022-09-15T08:20:33.528Z,21.35
2022-09-15T08:23:00.626Z,15.82
2022-09-15T08:25:27.665Z,18.25
2022-09-15T08:27:56.237Z,21.05
2022-09-15T08:30:23.640Z,22.27
2022-09-15T08:32:50.908Z,13.68
2022-09-15T08:35:18.890Z,21.40
2022-09-15T08:37:46.888Z,19.15
2022-09-15T08:40:22.165Z,18.90
2022-09-15T08:42:53.925Z,13.45
2022-09-15T08:45:26.125Z,13.20
2022-09-15T08:47:59.903Z,14.98
2022-09-15T08:50:31.261Z,15.10
2022-09-15T08:53:09.517Z,11.55
2022-09-15T08:55:45.755Z,13.00
2022-09-15T08:58:16.794Z,17.48
2022-09-15T09:00:46.922Z,14.45
2022-09-15T09:03:52.926Z,13.60
2022-09-15T09:06:45.138Z,13.75
2022-09-15T09:09:19.592Z,12.02
2022-09-15T09:12:05.432Z,9.23
2022-09-15T09:14:46.628Z,16.88
2022-09-15T09:17:51.553Z,11.38
2022-09-15T09:20:37.502Z,9.82
2022-09-15T09:23:12.764Z,8.23
2022-09-15T09:25:42.146Z,16.75
2022-09-15T09:28:31.344Z,10.77
2022-09-15T09:31:06.506Z,10.52
2022-09-15T09:33:56.257Z,9.27
2022-09-15T09:36:23.635Z,11.23
2022-09-15T09:38:51.097Z,15.05
2022-09-15T09:41:25.994Z,10.20
2022-09-15T09:43:55.756Z,14.45
2022-09-15T09:46:22.945Z,12.77
2022-09-15T09:49:04.435Z,9.85
2022-09-15T09:51:36.414Z,9.18
2022-09-15T09:54:06.367Z,12.27
2022-09-15T09:56:33.448Z,10.27
2022-09-15T10:00:27.844Z,13.63
2022-09-15T10:02:55.582Z,8.20
2022-09-15T10:05:22.285Z,15.38
2022-09-15T10:07:49.403Z,10.63
2022-09-15T10:10:20.355Z,14.10
2022-09-15T10:12:47.801Z,8.60
2022-09-15T10:15:22.942Z,8.80
2022-09-15T10:17:50.210Z,11.25
2022-09-15T10:20:32.319Z,12.48
2022-09-15T10:23:07.467Z,7.60
2022-09-15T10:25:55.541Z,10.43
2022-09-15T10:28:25.691Z,10.52
2022-09-15T10:33:26.471Z,13.00
2022-09-15T10:35:54.329Z,33.75
2022-09-15T10:38:32.695Z,14.60
2022-09-15T10:41:17.476Z,9.32
2022-09-15T10:43:44.216Z,8.25
2022-09-15T10:46:37.576Z,10.13
2022-09-15T10:49:18.070Z,11.90
2022-09-15T10:52:20.387Z,6.85
2022-09-15T10:54:49.905Z,8.18
2022-09-15T10:57:37.347Z,6.78
2022-09-15T11:00:10.894Z,8.35
2022-09-15T11:02:37.653Z,8.15
2022-09-15T11:05:23.406Z,8.82
2022-09-15T11:08:03.578Z,6.10
2022-09-15T11:10:43.203Z,8.63
2022-09-15T11:13:20.124Z,6.70
2022-09-15T11:15:50.381Z,7.70
2022-09-15T11:18:25.191Z,8.75
2022-09-15T11:20:51.891Z,9.00
2022-09-15T11:23:33.944Z,6.40
2022-09-15T11:26:09.759Z,5.80
2022-09-15T11:29:03.261Z,6.72
2022-09-15T11:31:31.403Z,11.52
2022-09-15T11:34:01.692Z,6.85
2022-09-15T11:36:31.847Z,3.65
2022-09-15T11:39:16.124Z,5.65
2022-09-15T11:41:50.984Z,10.75
2022-09-15T11:44:36.541Z,10.82
2022-09-15T11:47:06.553Z,6.65
2022-09-15T11:49:43.320Z,4.35
2022-09-15T11:52:28.796Z,4.43
2022-09-15T11:55:21.761Z,7.95
2022-09-15T11:57:55.582Z,5.88
2022-09-15T12:00:22.341Z,6.22
2022-09-15T12:02:52.526Z,5.47
2022-09-15T12:05:23.821Z,5.35
2022-09-15T12:07:53.596Z,5.35
2022-09-15T12:10:31.663Z,8.10
2022-09-15T12:13:00.192Z,3.83
2022-09-15T12:15:27.441Z,3.50
2022-09-15T12:17:58.632Z,6.97
2022-09-15T12:20:28.708Z,5.28
2022-09-15T12:23:04.367Z,5.45
2022-09-15T12:25:41.062Z,5.88
2022-09-15T12:28:22.898Z,10.23
2022-09-15T12:30:50.371Z,5.78
2022-09-15T12:33:35.876Z,5.93
2022-09-15T12:36:21.431Z,7.45
2022-09-15T12:38:48.710Z,4.63
2022-09-15T12:41:15.386Z,9.88
2022-09-15T12:43:50.967Z,5.05
2022-09-15T12:46:18.616Z,4.75
2022-09-15T12:48:47.429Z,5.50
2022-09-15T12:51:22.305Z,4.47
2022-09-15T12:54:00.580Z,3.63
2022-09-15T12:56:28.904Z,6.55
2022-09-15T12:58:55.947Z,11.85
2022-09-15T13:01:22.880Z,4.65
2022-09-15T13:03:49.695Z,5.65
2022-09-15T13:06:22.705Z,5.43
2022-09-15T13:09:15.420Z,5.20
2022-09-15T13:11:47.438Z,3.78
2022-09-15T13:14:26.242Z,5.53
2022-09-15T13:16:59.525Z,5.60
2022-09-15T13:19:41.004Z,6.65
2022-09-15T13:22:16.362Z,7.03
2022-09-15T13:24:45.862Z,5.28
2022-09-15T13:27:13.818Z,4.95
2022-09-15T13:29:45.863Z,5.13
2022-09-15T13:32:21.504Z,4.80
2022-09-15T13:35:08.215Z,9.25
2022-09-15T13:40:32.816Z,5.15
2022-09-15T13:43:00.672Z,5.03
2022-09-15T13:45:46.084Z,4.80
2022-09-15T13:48:31.324Z,4.07
2022-09-15T13:51:02.904Z,5.97
2022-09-15T13:53:42.661Z,4.90
2022-09-15T13:56:13.231Z,6.68
2022-09-15T13:59:03.260Z,5.47
2022-09-15T14:01:29.988Z,3.92
2022-09-15T14:04:00.631Z,4.60
2022-09-15T14:06:30.354Z,5.07
2022-09-15T14:08:58.624Z,5.95
2022-09-15T14:11:27.724Z,4.30
2022-09-15T14:13:55.047Z,4.47
2022-09-15T14:16:24.637Z,3.30
2022-09-15T14:18:53.009Z,7.10
2022-09-15T14:21:21.197Z,5.00
2022-09-15T14:23:49.365Z,3.80
2022-09-15T14:26:17.524Z,2.50
2022-09-15T14:29:00.816Z,3.45
2022-09-15T14:31:30.628Z,5.72
2022-09-15T14:33:57.591Z,2.65
2022-09-15T14:36:26.021Z,4.35
2022-09-15T14:39:22.167Z,7.03
2022-09-15T14:41:50.133Z,12.13
2022-09-15T14:47:26.319Z,7.63
2022-09-15T14:50:11.550Z,5.35
2022-09-15T14:52:49.816Z,3.75
2022-09-15T14:55:23.276Z,2.90
2022-09-15T14:57:55.795Z,6.10
2022-09-15T15:00:23.174Z,3.88
2022-09-15T15:03:05.203Z,6.30
2022-09-15T15:06:02.635Z,4.00
2022-09-15T15:08:37.575Z,3.88
2022-09-15T15:11:07.907Z,6.47
2022-09-15T15:13:36.146Z,3.08
2022-09-15T15:16:05.659Z,9.00
2022-09-15T15:18:35.381Z,5.50
2022-09-15T15:21:02.246Z,6.30
2022-09-15T15:23:29.134Z,4.90
2022-09-15T15:26:15.808Z,4.03
2022-09-15T15:28:42.516Z,3.95
2022-09-15T15:31:20.533Z,7.57
2022-09-15T15:33:48.422Z,6.78
2022-09-15T15:36:15.418Z,6.75
2022-09-15T15:38:47.513Z,5.53
2022-09-15T15:41:19.096Z,3.45
2022-09-15T15:43:57.388Z,5.85
2022-09-15T15:46:42.667Z,76.97
2022-09-15T15:49:10.322Z,6.68
2022-09-15T15:51:36.987Z,14.40
2022-09-15T15:54:03.900Z,9.45
2022-09-15T15:56:32.685Z,7.72
2022-09-15T15:59:03.414Z,10.40
2022-09-15T16:01:31.042Z,6.93
2022-09-15T16:03:57.793Z,5.22
2022-09-15T16:06:24.560Z,3.20
2022-09-15T16:08:52.606Z,9.13
2022-09-15T16:11:20.812Z,14.20
2022-09-15T16:13:48.285Z,9.20
2022-09-15T16:16:19.625Z,8.88
2022-09-15T16:18:46.490Z,11.38
2022-09-15T16:21:16.808Z,8.65
2022-09-15T16:23:43.651Z,6.75
2022-09-15T16:26:13.469Z,12.68
2022-09-15T16:28:40.376Z,8.13
2022-09-15T16:31:09.239Z,45.35
2022-09-15T16:33:38.092Z,7.53
2022-09-15T16:36:08.111Z,12.93
2022-09-15T16:38:35.602Z,6.55
2022-09-15T16:41:03.194Z,10.70
2022-09-15T16:43:29.926Z,9.35
2022-09-15T16:45:56.605Z,6.13
2022-09-15T16:48:23.349Z,4.50
2022-09-15T16:51:09.554Z,8.98
2022-09-15T16:53:39.305Z,3.58
2022-09-15T16:56:06.770Z,4.97
2022-09-15T16:58:33.843Z,7.70
2022-09-15T17:01:00.729Z,4.43
2022-09-15T17:03:27.957Z,3.97
2022-09-15T17:05:55.583Z,11.63
2022-09-15T17:08:23.475Z,6.20
2022-09-15T17:10:50.434Z,15.77
2022-09-15T17:13:21.658Z,7.53
2022-09-15T17:15:50.664Z,4.63
2022-09-15T17:18:17.417Z,5.93
2022-09-15T17:20:44.779Z,5.40
2022-09-15T17:23:23.509Z,5.78
2022-09-15T17:25:57.229Z,5.55
2022-09-15T17:28:25.313Z,5.63
2022-09-15T17:31:02.313Z,8.18
2022-09-15T17:33:29.595Z,3.60
2022-09-15T17:35:56.440Z,3.72
2022-09-15T17:38:23.268Z,6.20
2022-09-15T17:40:50.538Z,6.63
2022-09-15T17:43:18.551Z,7.22
2022-09-15T17:45:45.996Z,5.97
2022-09-15T17:48:12.816Z,4.78
2022-09-15T17:50:41.624Z,6.18
2022-09-15T17:53:21.092Z,4.75
2022-09-15T17:55:48.250Z,6.95
2022-09-15T17:58:15.113Z,4.88
2022-09-15T18:00:42.782Z,5.60
2022-09-15T18:03:21.588Z,6.63
2022-09-15T18:05:48.325Z,7.68
2022-09-15T18:08:16.396Z,4.70
2022-09-15T18:10:43.610Z,6.50
2022-09-15T18:13:13.199Z,11.45
2022-09-15T18:15:40.255Z,7.20
2022-09-15T18:18:08.479Z,5.38
2022-09-15T18:20:36.615Z,6.55
2022-09-15T18:23:03.301Z,9.60
2022-09-15T18:25:31.393Z,5.40
2022-09-15T18:27:58.577Z,8.00
2022-09-15T18:30:27.760Z,5.60
2022-09-15T18:32:54.691Z,7.50
2022-09-15T18:35:21.678Z,10.73
2022-09-15T18:37:49.485Z,9.35
2022-09-15T18:40:17.997Z,10.88
2022-09-15T18:42:45.147Z,11.93
2022-09-15T18:45:13.515Z,6.35
2022-09-15T18:47:42.317Z,11.68
2022-09-15T18:50:11.038Z,7.03
2022-09-15T18:52:38.632Z,7.70
2022-09-15T18:55:06.184Z,5.82
2022-09-15T18:57:36.405Z,8.30
2022-09-15T19:00:08.755Z,10.48
2022-09-15T19:02:35.911Z,7.15
2022-09-15T19:05:02.845Z,7.47
2022-09-15T19:07:29.630Z,8.30
2022-09-15T19:09:56.832Z,5.90
2022-09-15T19:12:23.745Z,5.32
2022-09-15T19:14:50.489Z,6.35
2022-09-15T19:17:17.329Z,6.80
2022-09-15T19:19:46.236Z,8.38
2022-09-15T19:22:13.156Z,7.70
2022-09-15T19:24:39.866Z,8.45
2022-09-15T19:27:07.555Z,5.28
2022-09-15T19:29:35.080Z,9.63
2022-09-15T19:32:03.036Z,11.00
2022-09-15T19:34:29.817Z,8.02
2022-09-15T19:36:56.558Z,10.10
2022-09-15T19:39:23.455Z,6.22
2022-09-15T19:41:50.548Z,9.45
2022-09-15T19:44:17.306Z,7.35
2022-09-15T19:46:44.095Z,6.18
2022-09-15T19:49:11.404Z,7.60
2022-09-15T19:51:38.310Z,6.60
2022-09-15T19:54:05.236Z,3.78
2022-09-15T19:56:32.113Z,5.95
2022-09-15T19:58:59.316Z,11.35
2022-09-15T20:01:27.945Z,4.18
2022-09-15T20:03:55.902Z,4.40
2022-09-15T20:06:23.253Z,7.65
2022-09-15T20:08:53.015Z,6.43
2022-09-15T20:11:19.991Z,6.65
2022-09-15T20:13:46.652Z,4.40
2022-09-15T20:16:18.102Z,9.95
2022-09-15T20:18:46.651Z,6.28
2022-09-15T20:21:45.789Z,3.37
2022-09-15T20:24:11.120Z,4.15
2022-09-15T20:26:37.845Z,3.90
2022-09-15T20:29:05.224Z,5.57
2022-09-15T20:31:34.906Z,7.88
2022-09-15T20:34:02.287Z,4.05
2022-09-15T20:36:30.347Z,9.68
2022-09-15T20:38:57.640Z,5.30
2022-09-15T20:41:25.098Z,6.43
2022-09-15T20:43:52.208Z,4.68
2022-09-15T20:46:20.794Z,6.45
2022-09-15T20:48:48.004Z,5.73
2022-09-15T20:51:15.288Z,2.88
2022-09-15T20:53:46.087Z,4.78
2022-09-15T20:56:13.442Z,4.95
2022-09-15T20:58:40.678Z,3.75
2022-09-15T21:01:07.481Z,4.43
2022-09-15T21:03:35.553Z,3.25
2022-09-15T21:06:03.855Z,5.00
2022-09-15T21:08:30.885Z,2.90
2022-09-15T21:10:58.916Z,6.68
2022-09-15T21:13:27.804Z,4.22
2022-09-15T21:15:57.006Z,7.88
2022-09-15T21:18:25.377Z,3.65
2022-09-15T21:20:59.205Z,7.65
2022-09-15T21:23:26.755Z,2.83
2022-09-15T21:26:02.147Z,5.93
2022-09-15T21:28:29.295Z,6.65
2022-09-15T21:31:06.224Z,4.57
2022-09-15T21:33:33.397Z,4.15
2022-09-15T21:36:03.454Z,4.15
2022-09-15T21:38:30.226Z,4.53
2022-09-15T21:40:57.411Z,4.05
2022-09-15T21:43:24.274Z,2.28
2022-09-15T21:45:54.792Z,4.93
2022-09-15T21:48:21.637Z,3.92
2022-09-15T21:50:52.133Z,4.22
2022-09-15T21:53:20.171Z,3.53
2022-09-15T21:55:47.960Z,4.95
2022-09-15T21:58:14.706Z,12.55
2022-09-15T22:00:42.169Z,158.95
2022-09-15T22:03:10.835Z,105.45
2022-09-15T22:05:43.413Z,114.47
2022-09-15T22:08:11.195Z,102.50
2022-09-15T22:10:38.006Z,29.55
2022-09-15T22:13:05.302Z,12.80
2022-09-15T22:15:32.286Z,8.27
2022-09-15T22:17:59.675Z,5.40
2022-09-15T22:20:27.454Z,3.05
2022-09-15T22:22:55.233Z,4.05
2022-09-15T22:25:22.234Z,8.82
2022-09-15T22:27:48.964Z,3.17
2022-09-15T22:30:15.684Z,4.68
2022-09-15T22:32:42.469Z,8.10
2022-09-15T22:35:09.254Z,8.55
2022-09-15T22:37:36.025Z,3.88
2022-09-15T22:40:02.812Z,10.55
2022-09-15T22:42:29.606Z,4.72
2022-09-15T22:44:56.315Z,1.95
2022-09-15T22:47:23.055Z,4.97
2022-09-15T22:49:49.761Z,6.45
2022-09-15T22:52:16.565Z,7.57
2022-09-15T22:54:43.274Z,8.95
2022-09-15T22:57:09.989Z,2.78
2022-09-15T22:59:36.688Z,2.72
2022-09-15T23:02:03.477Z,5.43
2022-09-15T23:04:30.200Z,11.18
2022-09-15T23:06:56.929Z,6.72
2022-09-15T23:09:23.615Z,32.25
2022-09-15T23:11:50.362Z,46.03
2022-09-15T23:14:17.612Z,27.75
2022-09-15T23:16:44.594Z,11.40
2022-09-15T23:19:12.107Z,9.85
2022-09-15T23:21:39.089Z,4.32
2022-09-15T23:24:05.920Z,5.25
2022-09-15T23:26:32.634Z,5.90
2022-09-15T23:28:59.368Z,4.68
2022-09-15T23:31:26.168Z,4.50
2022-09-15T23:33:53.390Z,6.03
2022-09-15T23:36:20.329Z,8.50
2022-09-15T23:38:47.816Z,4.53
2022-09-15T23:41:15.850Z,5.57
2022-09-15T23:43:42.563Z,4.40
2022-09-15T23:46:09.606Z,7.32
2022-09-15T23:48:36.419Z,5.82
2022-09-15T23:51:03.623Z,7.40
2022-09-15T23:53:30.356Z,3.55
2022-09-15T23:55:57.140Z,4.50
2022-09-15T23:58:24.098Z,4.30
